Time;durP1;ratioP1;P1;durP2;ratioP2;P2;SDS_P1;SDS_P2;PMS_P1;PMS_P2;Temp;Humidity;BMP_temperature;BMP_pressure;BME280_temperature;BME280_humidity;BME280_pressure;Samples;Min_cycle;Max_cycle;Signal;HPM_P1;HPM_P2
2021/01/27 00:01:34;;;;;;;6.81;2.63;;;;;;;-0.50;84.79;99655.75;2323268;66;22077;-72
2021/01/27 00:04:37;;;;;;;2.70;2.32;;;;;;;-0.48;84.97;99654.13;2324974;68;20147;-72
2021/01/27 00:07:39;;;;;;;4.23;2.19;;;;;;;-0.47;85.03;99641.44;2324123;68;20205;-72
2021/01/27 00:10:41;;;;;;;5.08;2.92;;;;;;;-0.47;85.15;99640.56;2325611;68;20191;-72
2021/01/27 00:13:43;;;;;;;4.36;2.42;;;;;;;-0.47;85.12;99626.16;2324558;68;20228;-72
2021/01/27 00:16:45;;;;;;;4.54;2.93;;;;;;;-0.48;85.00;99626.09;2322893;67;20333;-73
2021/01/27 00:19:47;;;;;;;3.03;2.39;;;;;;;-0.51;84.97;99628.50;2323471;68;20686;-72
2021/01/27 00:22:48;;;;;;;4.76;2.22;;;;;;;-0.55;84.99;99626.59;2324562;68;20212;-72
2021/01/27 00:25:50;;;;;;;3.81;2.43;;;;;;;-0.55;84.98;99616.41;2323449;68;20151;-72
2021/01/27 00:28:52;;;;;;;5.91;3.54;;;;;;;-0.58;84.82;99616.28;2323714;68;20204;-72
2021/01/27 00:31:53;;;;;;;3.71;2.43;;;;;;;-0.57;84.80;99618.00;2325944;66;22965;-72
2021/01/27 00:34:55;;;;;;;3.88;2.27;;;;;;;-0.63;84.61;99610.97;2319909;68;20280;-71
2021/01/27 00:37:58;;;;;;;2.78;1.97;;;;;;;-0.64;84.52;99611.78;2323767;68;20675;-72
2021/01/27 00:41:00;;;;;;;3.90;2.42;;;;;;;-0.75;84.17;99607.91;2324321;68;20154;-72
2021/01/27 00:44:02;;;;;;;3.73;2.40;;;;;;;-0.78;84.28;99615.41;2320982;68;20205;-71
2021/01/27 00:47:04;;;;;;;3.78;2.41;;;;;;;-0.80;84.26;99609.38;2316604;66;20930;-72
2021/01/27 00:50:07;;;;;;;5.96;2.48;;;;;;;-0.84;84.06;99612.59;2317443;69;20271;-72
2021/01/27 00:53:08;;;;;;;4.51;3.00;;;;;;;-0.87;83.92;99617.56;2316960;68;20216;-72
2021/01/27 00:56:10;;;;;;;3.76;2.28;;;;;;;-0.92;83.74;99618.22;2316559;69;20196;-72
2021/01/27 00:59:12;;;;;;;4.70;2.36;;;;;;;-0.93;84.12;99621.56;2317298;69;20191;-72
2021/01/27 01:02:13;;;;;;;4.44;2.29;;;;;;;-0.93;84.47;99607.94;2316212;66;20175;-71
2021/01/27 01:05:23;;;;;;;3.86;2.46;;;;;;;-0.91;84.58;99611.44;2317095;68;20202;-72
2021/01/27 01:08:24;;;;;;;5.67;2.66;;;;;;;-0.88;84.83;99608.19;2317866;69;20209;-72
2021/01/27 01:11:27;;;;;;;3.31;2.29;;;;;;;-0.84;84.97;99600.72;2317741;69;20175;-72
2021/01/27 01:14:29;;;;;;;4.66;2.36;;;;;;;-0.81;85.06;99605.09;2317047;68;20167;-72
2021/01/27 01:17:30;;;;;;;4.49;2.47;;;;;;;-0.79;85.36;99606.03;2316171;66;22915;-72
2021/01/27 01:20:32;;;;;;;3.83;2.32;;;;;;;-0.75;85.54;99600.25;2317245;69;20144;-72
2021/01/27 01:23:34;;;;;;;5.48;2.78;;;;;;;-0.74;85.60;99604.53;2317483;68;20296;-72
2021/01/27 01:26:35;;;;;;;4.36;3.43;;;;;;;-0.73;85.83;99607.16;2316354;69;20144;-72
2021/01/27 01:29:37;;;;;;;5.69;2.98;;;;;;;-0.70;85.93;99607.31;2317142;69;20172;-72
2021/01/27 01:32:39;;;;;;;6.08;3.12;;;;;;;-0.67;86.02;99601.47;2316718;69;24266;-72
2021/01/27 01:35:42;;;;;;;3.67;2.72;;;;;;;-0.64;86.01;99599.91;2317207;69;20278;-72
2021/01/27 01:38:45;;;;;;;5.89;3.18;;;;;;;-0.62;85.92;99598.31;2316953;69;20155;-72
2021/01/27 01:41:46;;;;;;;6.94;3.90;;;;;;;-0.59;85.95;99601.78;2317631;69;20729;-72
2021/01/27 01:44:48;;;;;;;7.69;3.70;;;;;;;-0.57;85.98;99590.84;2316412;68;20278;-72
2021/01/27 01:47:53;;;;;;;6.91;3.86;;;;;;;-0.54;85.93;99592.66;2316410;67;20687;-72
2021/01/27 01:51:00;;;;;;;6.31;3.97;;;;;;;-0.51;86.02;99588.56;2315783;69;20640;-72
2021/01/27 01:54:08;;;;;;;4.59;3.56;;;;;;;-0.47;86.01;99587.88;2317697;68;20212;-72
2021/01/27 01:57:19;;;;;;;5.53;3.40;;;;;;;-0.46;86.03;99586.22;2316832;69;20481;-72
2021/01/27 02:00:24;;;;;;;6.66;4.20;;;;;;;-0.43;86.14;99581.22;2316495;69;21269;-72
2021/01/27 02:03:28;;;;;;;5.32;3.71;;;;;;;-0.39;86.18;99578.00;2316407;68;20203;-72
2021/01/27 02:06:30;;;;;;;6.62;4.06;;;;;;;-0.33;86.18;99566.38;2316022;69;20144;-72
2021/01/27 02:09:31;;;;;;;5.79;3.68;;;;;;;-0.32;86.15;99562.16;2317724;69;20213;-72
2021/01/27 02:13:07;;;;;;;8.26;4.08;;;;;;;-0.32;86.19;99559.59;2315941;69;20169;-72
2021/01/27 02:16:25;;;;;;;7.67;4.44;;;;;;;-0.34;86.20;99556.13;2316575;67;24064;-72
2021/01/27 02:19:50;;;;;;;9.53;4.67;;;;;;;-0.33;86.65;99550.22;2317637;69;20187;-72
2021/01/27 02:23:26;;;;;;;5.67;4.44;;;;;;;-0.27;86.82;99541.94;2316489;68;20163;-72
2021/01/27 02:26:54;;;;;;;9.53;4.83;;;;;;;-0.23;86.84;99556.53;2318733;69;20197;-72
2021/01/27 02:30:21;;;;;;;6.98;4.06;;;;;;;-0.17;86.92;99570.44;2317453;69;20140;-73
2021/01/27 02:33:31;;;;;;;5.93;3.96;;;;;;;-0.13;86.85;99566.31;2315288;68;20619;-73
2021/01/27 02:36:47;;;;;;;11.47;6.90;;;;;;;-0.13;86.87;99576.53;2314987;69;20155;-73
2021/01/27 02:39:59;;;;;;;8.88;7.07;;;;;;;-0.07;87.19;99569.13;2315715;69;20504;-72
2021/01/27 02:43:13;;;;;;;10.87;6.49;;;;;;;-0.01;87.13;99569.34;2315671;68;20189;-73
2021/01/27 02:46:23;;;;;;;11.58;6.41;;;;;;;0.03;86.93;99566.13;2315930;66;26732;-73
2021/01/27 02:49:39;;;;;;;12.46;8.71;;;;;;;0.06;86.92;99570.50;2315634;69;20357;-72
2021/01/27 02:52:51;;;;;;;11.51;7.67;;;;;;;0.08;86.97;99566.31;2315226;69;20278;-72
2021/01/27 02:56:09;;;;;;;11.44;7.62;;;;;;;0.11;86.93;99569.84;2315662;69;20172;-72
2021/01/27 02:59:18;;;;;;;10.04;6.61;;;;;;;0.15;86.94;99555.53;2315680;69;20592;-73
2021/01/27 03:02:33;;;;;;;;;;;;;;;0.15;86.83;99540.22;2315553;66;21735;-72
2021/01/27 03:05:40;;;;;;;10.89;6.82;;;;;;;0.15;86.84;99537.66;2316330;68;20145;-73
2021/01/27 03:08:55;;;;;;;13.87;8.56;;;;;;;0.11;87.07;99539.22;2316827;69;20858;-73
2021/01/27 03:11:57;;;;;;;11.66;8.91;;;;;;;0.13;87.24;99546.94;2316817;69;20209;-73
2021/01/27 03:14:58;;;;;;;13.66;9.44;;;;;;;0.17;87.29;99543.69;2316786;68;20155;-73
2021/01/27 03:18:00;;;;;;;15.57;9.32;;;;;;;0.20;87.22;99525.97;2315322;66;22841;-72
2021/01/27 03:21:12;;;;;;;13.18;8.96;;;;;;;0.22;87.14;99516.69;2316080;69;20273;-72
2021/01/27 03:24:20;;;;;;;14.01;8.73;;;;;;;0.20;87.22;99508.97;2316233;68;20151;-72
2021/01/27 03:27:27;;;;;;;13.62;9.70;;;;;;;0.20;87.33;99506.41;2316088;69;20212;-73
2021/01/27 03:30:30;;;;;;;14.20;9.48;;;;;;;0.22;87.44;99501.34;2315724;66;22099;-72
2021/01/27 03:33:41;;;;;;;13.01;9.16;;;;;;;0.22;87.46;99492.00;2317035;68;20191;-73
2021/01/27 03:36:52;;;;;;;13.76;9.16;;;;;;;0.25;87.66;99489.56;2316589;69;20167;-72
2021/01/27 03:40:00;;;;;;;12.69;8.65;;;;;;;0.27;87.63;99481.97;2317008;69;20333;-72
2021/01/27 03:43:10;;;;;;;15.27;9.36;;;;;;;0.24;87.78;99490.38;2316889;68;20337;-72
2021/01/27 03:46:27;;;;;;;12.26;8.08;;;;;;;0.28;87.90;99484.56;2316594;66;20386;-72
2021/01/27 03:49:43;;;;;;;14.86;9.19;;;;;;;0.31;87.85;99476.16;2316543;69;20579;-72
2021/01/27 03:52:59;;;;;;;13.75;8.11;;;;;;;0.30;87.86;99471.84;2316334;68;20165;-72
2021/01/27 03:56:36;;;;;;;10.44;7.41;;;;;;;0.33;87.96;99478.75;2316942;69;20750;-72
2021/01/27 03:59:37;;;;;;;11.73;7.44;;;;;;;0.34;87.99;99473.72;2316319;69;20143;-73
2021/01/27 04:02:39;;;;;;;9.61;6.58;;;;;;;0.36;87.97;99453.34;2315219;69;24743;-72
2021/01/27 04:05:41;;;;;;;10.48;6.82;;;;;;;0.39;88.03;99441.56;2314634;69;20225;-72
2021/01/27 04:08:43;;;;;;;10.99;7.51;;;;;;;0.35;88.00;99437.13;2316308;69;20318;-72
2021/01/27 04:11:45;;;;;;;11.84;7.70;;;;;;;0.34;88.18;99421.75;2314828;69;20221;-72
2021/01/27 04:14:46;;;;;;;13.08;7.53;;;;;;;0.35;88.34;99413.28;2314565;68;20156;-72
2021/01/27 04:17:48;;;;;;;10.57;7.14;;;;;;;0.36;88.39;99404.81;2314738;67;24852;-72
2021/01/27 04:20:50;;;;;;;9.88;6.90;;;;;;;0.34;88.50;99409.88;2315640;69;20287;-72
2021/01/27 04:23:52;;;;;;;9.29;6.54;;;;;;;0.38;88.57;99419.41;2315155;68;20299;-72
2021/01/27 04:26:53;;;;;;;8.34;6.14;;;;;;;0.35;88.53;99419.25;2315592;69;20165;-72
2021/01/27 04:29:55;;;;;;;10.91;6.61;;;;;;;0.38;88.67;99408.31;2314875;69;20167;-72
2021/01/27 04:32:58;;;;;;;9.13;6.62;;;;;;;0.38;88.66;99398.97;2313657;66;20593;-72
2021/01/27 04:36:01;;;;;;;9.03;6.72;;;;;;;0.41;88.54;99385.44;2314314;69;20224;-72
2021/01/27 04:39:03;;;;;;;9.39;7.35;;;;;;;0.41;88.49;99375.22;2314422;69;20607;-72
2021/01/27 04:42:05;;;;;;;13.73;8.21;;;;;;;0.40;88.52;99369.25;2310252;69;20961;-72
2021/01/27 04:45:07;;;;;;;15.49;8.79;;;;;;;0.43;88.46;99365.94;2314907;68;20529;-72
2021/01/27 04:48:18;;;;;;;15.33;9.76;;;;;;;0.41;88.48;99378.66;2315153;66;20646;-72
2021/01/27 04:51:32;;;;;;;17.43;10.87;;;;;;;0.40;88.58;99379.47;2314548;69;20201;-72
2021/01/27 04:54:41;;;;;;;17.79;11.70;;;;;;;0.43;88.69;99381.25;2314573;68;20176;-72
2021/01/27 04:57:58;;;;;;;17.88;11.15;;;;;;;0.42;88.73;99379.50;2314778;69;20171;-72
2021/01/27 05:01:29;;;;;;;15.69;10.91;;;;;;;0.42;88.77;99365.06;2314232;67;21372;-72
2021/01/27 05:04:35;;;;;;;16.66;10.73;;;;;;;0.44;88.76;99342.13;2315036;68;20202;-72
2021/01/27 05:07:42;;;;;;;19.37;11.99;;;;;;;0.45;88.72;99334.50;2319598;68;20697;-72
2021/01/27 05:10:55;;;;;;;16.77;10.23;;;;;;;0.47;88.82;99334.56;2318325;68;20165;-72
2021/01/27 05:14:01;;;;;;;14.48;9.72;;;;;;;0.49;88.73;99325.25;2314985;68;20169;-72
2021/01/27 05:17:08;;;;;;;12.99;8.68;;;;;;;0.48;88.73;99311.63;2314656;66;20601;-72
2021/01/27 05:20:13;;;;;;;12.66;8.56;;;;;;;0.49;88.77;99312.50;2314673;69;20132;-72
2021/01/27 05:23:15;;;;;;;10.29;7.41;;;;;;;0.50;88.91;99321.91;2314815;68;20148;-72
2021/01/27 05:26:20;;;;;;;9.83;6.97;;;;;;;0.49;88.86;99313.38;2314658;69;20148;-71
2021/01/27 05:29:26;;;;;;;8.75;6.43;;;;;;;0.48;89.02;99316.72;2314822;69;20171;-72
2021/01/27 05:32:27;;;;;;;6.62;5.90;;;;;;;0.50;89.06;99317.66;2314595;66;21398;-72
2021/01/27 05:35:38;;;;;;;8.06;5.87;;;;;;;0.52;89.02;99310.03;2316092;68;20335;-72
2021/01/27 05:38:40;;;;;;;7.18;5.30;;;;;;;0.51;89.08;99295.53;2314203;69;20181;-72
2021/01/27 05:41:43;;;;;;;6.18;4.86;;;;;;;0.54;89.26;99285.44;2314709;69;20315;-72
2021/01/27 05:44:44;;;;;;;8.38;5.46;;;;;;;0.53;nan;99273.47;2314657;68;20177;-72
2021/01/27 05:47:46;;;;;;;6.25;5.16;;;;;;;0.51;89.21;99257.22;2315070;67;20410;-72
2021/01/27 05:50:49;;;;;;;5.77;4.67;;;;;;;0.53;89.40;99258.13;2315428;69;20385;-72
2021/01/27 05:53:51;;;;;;;8.41;5.09;;;;;;;0.54;89.36;99250.56;2314935;68;20148;-72
2021/01/27 05:56:54;;;;;;;7.70;5.20;;;;;;;0.53;89.39;99253.03;2314877;69;20330;-72
2021/01/27 06:00:08;;;;;;;4.99;4.33;;;;;;;0.51;89.38;99245.31;2315246;69;20128;-72
2021/01/27 06:03:10;;;;;;;5.77;5.03;;;;;;;0.49;89.45;99229.06;2314315;66;23946;-73
2021/01/27 06:06:13;;;;;;;5.18;4.39;;;;;;;0.52;89.71;99229.16;2314292;69;20943;-73
2021/01/27 06:09:49;;;;;;;4.20;3.84;;;;;;;0.52;89.61;99239.38;2315558;69;20308;-73
2021/01/27 06:12:51;;;;;;;3.36;3.10;;;;;;;0.52;89.68;99226.63;2301582;68;20148;-73
2021/01/27 06:15:54;;;;;;;4.99;3.89;;;;;;;0.52;89.71;99215.53;2312619;67;20577;-72
2021/01/27 06:19:26;;;;;;;5.59;4.00;;;;;;;0.53;89.79;99196.84;2314559;69;20367;-72
2021/01/27 06:22:59;;;;;;;3.92;3.58;;;;;;;0.54;89.67;99206.25;2310351;69;20144;-73
2021/01/27 06:26:35;;;;;;;3.38;3.08;;;;;;;0.58;89.76;99215.75;2315261;69;20322;-72
2021/01/27 06:29:49;;;;;;;2.54;2.24;;;;;;;0.61;89.80;99236.28;2316029;69;20280;-72
2021/01/27 06:33:23;;;;;;;3.45;2.46;;;;;;;0.64;89.59;99253.38;2314288;66;21125;-73
2021/01/27 06:36:25;;;;;;;2.57;1.97;;;;;;;0.63;89.38;99252.53;2315862;69;20478;-73
2021/01/27 06:39:51;;;;;;;2.63;1.94;;;;;;;0.61;89.33;99261.81;2316041;69;20160;-72
2021/01/27 06:43:24;;;;;;;1.81;1.70;;;;;;;0.66;89.47;99256.84;2315183;68;20167;-72
2021/01/27 06:46:37;;;;;;;2.37;1.74;;;;;;;0.66;89.27;99251.75;2314441;66;20189;-73
2021/01/27 06:50:10;;;;;;;1.77;1.57;;;;;;;0.67;89.26;99254.34;2315396;69;20156;-73
2021/01/27 06:53:33;;;;;;;1.71;1.61;;;;;;;0.70;89.18;99274.00;2315496;68;20164;-73
2021/01/27 06:57:13;;;;;;;1.67;1.57;;;;;;;0.74;89.12;99279.31;2314311;69;20675;-72
2021/01/27 07:00:28;;;;;;;1.20;1.12;;;;;;;0.77;88.85;99274.28;2312862;66;26573;-73
2021/01/27 07:03:45;;;;;;;1.23;1.10;;;;;;;0.73;88.60;99246.91;2313828;68;20605;-72
2021/01/27 07:07:24;;;;;;;1.36;0.90;;;;;;;0.72;88.54;99222.19;2314855;69;20196;-72
2021/01/27 07:10:44;;;;;;;1.44;1.33;;;;;;;0.71;88.48;99211.88;2307070;69;20317;-71
2021/01/27 07:14:04;;;;;;;0.96;0.91;;;;;;;0.72;88.51;99211.06;2314793;68;20160;-71
2021/01/27 07:17:11;;;;;;;1.30;1.20;;;;;;;0.67;88.43;99205.81;2314021;66;20333;-71
2021/01/27 07:20:32;;;;;;;1.42;1.19;;;;;;;0.64;88.57;99197.19;2314694;69;20601;-73
2021/01/27 07:23:58;;;;;;;1.20;1.10;;;;;;;0.64;88.70;99202.28;2314821;68;20951;-74
2021/01/27 07:27:17;;;;;;;2.57;1.26;;;;;;;0.67;88.74;99218.59;2314040;69;20132;-74
2021/01/27 07:30:22;;;;;;;1.46;0.98;;;;;;;0.70;88.90;99217.81;2314135;66;20634;-72
2021/01/27 07:33:56;;;;;;;1.59;1.08;;;;;;;0.68;88.60;99214.34;2314469;69;20171;-71
2021/01/27 07:37:17;;;;;;;1.37;0.90;;;;;;;0.71;88.82;99216.97;2315472;69;20639;-72
2021/01/27 07:40:26;;;;;;;1.04;0.83;;;;;;;0.72;88.69;99227.28;2315842;69;20148;-74
2021/01/27 07:43:36;;;;;;;1.40;0.90;;;;;;;0.72;88.53;99234.94;2314719;68;20199;-72
2021/01/27 07:47:03;;;;;;;0.81;0.67;;;;;;;0.76;88.55;99234.22;2314124;69;20992;-72
2021/01/27 07:50:05;;;;;;;2.03;0.82;;;;;;;0.79;88.41;99248.78;2315288;69;20506;-73
2021/01/27 07:53:16;;;;;;;0.80;0.80;;;;;;;0.82;88.41;99259.97;2315304;69;20284;-74
2021/01/27 07:56:24;;;;;;;2.52;0.70;;;;;;;0.81;88.15;99258.22;2315391;69;20277;-75
2021/01/27 07:59:35;;;;;;;2.51;0.70;;;;;;;0.83;87.99;99258.28;2314952;69;20787;-76
2021/01/27 08:03:02;;;;;;;0.71;0.71;;;;;;;0.84;88.00;99253.19;2315307;66;20995;-72
2021/01/27 08:06:17;;;;;;;1.41;0.70;;;;;;;0.85;87.87;99247.28;2309802;69;20365;-72
2021/01/27 08:09:41;;;;;;;0.60;0.57;;;;;;;0.85;87.57;99244.72;2315111;69;20800;-73
2021/01/27 08:12:50;;;;;;;1.34;0.70;;;;;;;0.81;87.76;99232.66;2315176;68;20257;-73
2021/01/27 08:16:14;;;;;;;1.21;0.70;;;;;;;0.84;87.77;99196.13;2314023;66;20854;-73
2021/01/27 08:19:19;;;;;;;0.94;0.50;;;;;;;0.77;87.61;99206.97;2315236;69;20144;-73
2021/01/27 08:22:45;;;;;;;0.54;0.54;;;;;;;0.79;87.69;99231.75;2315903;69;20179;-73
2021/01/27 08:25:53;;;;;;;0.50;0.50;;;;;;;0.78;87.57;99230.03;2315363;69;20176;-73
2021/01/27 08:29:06;;;;;;;1.35;0.75;;;;;;;0.77;87.33;99219.75;2315939;69;20564;-75
2021/01/27 08:32:22;;;;;;;1.06;0.80;;;;;;;0.77;87.35;99223.19;2315688;66;21824;-72
2021/01/27 08:35:36;;;;;;;2.56;0.76;;;;;;;0.81;87.29;99203.69;2315544;68;20180;-73
2021/01/27 08:38:41;;;;;;;1.08;0.76;;;;;;;0.85;87.17;99191.06;2314952;69;20238;-72
2021/01/27 08:41:46;;;;;;;0.80;0.70;;;;;;;0.88;87.16;99178.34;2315511;69;20936;-72
2021/01/27 08:44:47;;;;;;;0.94;0.83;;;;;;;0.93;87.11;99162.31;2315392;68;20844;-72
2021/01/27 08:47:59;;;;;;;0.80;0.80;;;;;;;0.91;86.96;99152.06;2313797;69;21437;-73
2021/01/27 08:51:01;;;;;;;0.71;0.71;;;;;;;0.90;87.02;99161.41;2315631;69;20247;-73
2021/01/27 08:54:47;;;;;;;1.54;0.80;;;;;;;0.88;87.05;99142.56;2314723;68;20183;-74
2021/01/27 08:58:19;;;;;;;1.20;0.68;;;;;;;0.92;87.13;99146.13;2314872;69;20292;-72
2021/01/27 09:01:20;;;;;;;0.58;0.50;;;;;;;0.93;86.77;99164.88;2314686;66;24483;-72
2021/01/27 09:04:35;;;;;;;0.84;0.47;;;;;;;0.96;86.64;99176.06;2314754;68;20280;-73
2021/01/27 09:07:47;;;;;;;0.56;0.50;;;;;;;1.04;86.65;99181.38;2314804;68;20181;-72
2021/01/27 09:10:58;;;;;;;1.03;0.52;;;;;;;1.07;86.46;99195.13;2316259;69;20593;-72
2021/01/27 09:14:09;;;;;;;0.77;0.59;;;;;;;1.05;86.04;99180.56;2316993;68;20148;-72
2021/01/27 09:17:12;;;;;;;0.66;0.52;;;;;;;1.08;86.07;99171.31;2314533;66;21272;-72
2021/01/27 09:20:21;;;;;;;0.52;0.50;;;;;;;1.09;86.04;99173.03;2316927;69;20160;-72
2021/01/27 09:23:23;;;;;;;0.58;0.58;;;;;;;1.06;85.69;99185.72;2316508;68;20931;-72
2021/01/27 09:26:42;;;;;;;0.40;0.40;;;;;;;1.05;85.91;99178.88;2315252;69;20185;-72
2021/01/27 09:29:45;;;;;;;0.54;0.50;;;;;;;1.07;85.83;99173.78;2316013;69;20552;-72
2021/01/27 09:32:46;;;;;;;0.59;0.59;;;;;;;1.07;85.85;99172.09;2314905;66;26492;-72
2021/01/27 09:35:48;;;;;;;0.60;0.60;;;;;;;1.10;85.80;99173.91;2315570;69;20171;-72
2021/01/27 09:38:55;;;;;;;0.50;0.50;;;;;;;1.09;85.83;99172.19;2315371;69;20147;-72
2021/01/27 09:41:59;;;;;;;0.54;0.49;;;;;;;1.10;85.83;99179.91;2314938;69;20164;-72
2021/01/27 09:45:07;;;;;;;1.01;0.60;;;;;;;1.12;85.74;99177.38;2314800;68;20173;-73
2021/01/27 09:48:11;;;;;;;0.54;0.52;;;;;;;1.12;85.86;99179.94;2315488;69;21248;-72
2021/01/27 09:51:15;;;;;;;2.10;0.63;;;;;;;1.15;85.87;99191.13;2315582;69;20289;-73
2021/01/27 09:54:19;;;;;;;2.63;0.66;;;;;;;1.16;85.68;99189.44;2315508;68;20163;-73
2021/01/27 09:57:23;;;;;;;0.74;0.60;;;;;;;1.15;85.36;99206.47;2316332;69;20144;-73
2021/01/27 10:00:30;;;;;;;0.89;0.60;;;;;;;1.12;85.32;99210.63;2314436;67;20825;-74
2021/01/27 10:03:40;;;;;;;1.10;0.58;;;;;;;1.11;85.32;99219.97;2316029;68;20833;-73
2021/01/27 10:06:55;;;;;;;0.83;0.61;;;;;;;1.12;85.45;99219.16;2316009;69;20155;-73
2021/01/27 10:10:20;;;;;;;1.47;0.86;;;;;;;1.15;85.43;99208.16;2314752;69;20342;-71
2021/01/27 10:13:22;;;;;;;1.76;0.90;;;;;;;1.13;85.46;99223.44;2315790;68;20791;-73
2021/01/27 10:16:24;;;;;;;0.88;0.77;;;;;;;1.18;85.53;99229.56;2316265;67;21829;-74
2021/01/27 10:19:44;;;;;;;1.03;0.91;;;;;;;1.23;85.53;99229.69;2317623;69;20171;-74
2021/01/27 10:22:55;;;;;;;1.99;1.20;;;;;;;1.29;85.39;99234.13;2317372;68;20243;-74
2021/01/27 10:26:34;;;;;;;1.57;1.31;;;;;;;1.31;85.14;99228.25;2316845;69;20680;-75
2021/01/27 10:29:37;;;;;;;1.59;1.30;;;;;;;1.31;85.21;99228.25;2317377;69;20185;-74
2021/01/27 10:32:43;;;;;;;2.17;1.12;;;;;;;1.35;85.08;99226.63;2314396;66;30612;-75
2021/01/27 10:35:45;;;;;;;1.93;1.07;;;;;;;1.34;84.88;99222.34;2316685;69;20152;-75
2021/01/27 10:38:46;;;;;;;1.99;1.31;;;;;;;1.34;84.86;99217.22;2317047;69;20626;-74
2021/01/27 10:41:52;;;;;;;3.80;1.92;;;;;;;1.29;84.94;99211.97;2316840;69;20155;-74
2021/01/27 10:45:16;;;;;;;2.04;1.11;;;;;;;1.32;84.96;99212.06;2316304;68;20706;-74
2021/01/27 10:48:24;;;;;;;1.36;1.13;;;;;;;1.32;84.98;99200.97;2317071;69;20152;-75
2021/01/27 10:51:26;;;;;;;1.19;0.93;;;;;;;1.33;84.90;99206.13;2315566;69;20159;-75
2021/01/27 10:54:28;;;;;;;1.29;1.18;;;;;;;1.33;84.82;99198.47;2316160;68;20220;-74
2021/01/27 10:57:30;;;;;;;4.02;1.42;;;;;;;1.33;84.90;99193.34;2316366;69;20177;-74
2021/01/27 11:00:32;;;;;;;2.51;1.11;;;;;;;1.36;84.92;99184.88;2316419;66;21167;-74
2021/01/27 11:03:33;;;;;;;3.26;1.50;;;;;;;1.39;85.08;99190.09;2317046;68;20229;-74
2021/01/27 11:06:38;;;;;;;2.24;1.40;;;;;;;1.40;84.89;99185.00;2317703;69;20744;-74
2021/01/27 11:09:40;;;;;;;3.46;1.57;;;;;;;1.37;84.67;99184.94;2317212;69;20167;-73
2021/01/27 11:12:41;;;;;;;2.59;1.83;;;;;;;1.38;84.59;99193.47;2316576;68;20165;-74
2021/01/27 11:15:44;;;;;;;2.09;1.54;;;;;;;1.36;84.48;99203.66;2316195;66;33532;-74
2021/01/27 11:18:45;;;;;;;2.34;1.54;;;;;;;1.37;84.58;99204.53;2311453;69;20649;-74
2021/01/27 11:21:47;;;;;;;2.78;1.73;;;;;;;1.39;84.52;99208.84;2316603;69;20181;-74
2021/01/27 11:24:49;;;;;;;2.68;1.90;;;;;;;1.38;84.50;99198.59;2316145;68;20176;-75
2021/01/27 11:27:51;;;;;;;2.70;1.74;;;;;;;1.40;84.49;99199.50;2316860;69;20610;-74
2021/01/27 11:30:54;;;;;;;2.98;2.10;;;;;;;1.42;84.47;99190.16;2310114;66;23963;-73
2021/01/27 11:33:57;;;;;;;3.22;2.12;;;;;;;1.43;84.35;99184.22;2315585;68;20173;-74
2021/01/27 11:36:59;;;;;;;3.03;2.08;;;;;;;1.42;84.26;99165.44;2314785;69;20201;-77
2021/01/27 11:40:01;;;;;;;3.50;2.00;;;;;;;1.43;84.34;99168.88;2315056;69;20170;-75
2021/01/27 11:43:03;;;;;;;4.97;2.26;;;;;;;1.40;84.18;99167.09;2315080;69;20300;-76
2021/01/27 11:46:05;;;;;;;6.36;3.07;;;;;;;1.46;84.38;99153.63;2314577;66;22063;-76
2021/01/27 11:49:15;;;;;;;5.57;2.30;;;;;;;1.45;84.41;99144.22;2316183;69;20179;-77
2021/01/27 11:52:18;;;;;;;6.35;2.75;;;;;;;1.47;84.49;99147.69;2315818;69;20144;-79
2021/01/27 11:55:21;;;;;;;5.30;2.86;;;;;;;1.48;84.48;99142.63;2314876;69;20430;-78
2021/01/27 11:58:24;;;;;;;3.44;2.48;;;;;;;1.49;84.43;99133.25;2315732;69;20169;-80
2021/01/27 12:01:29;;;;;;;3.90;2.68;;;;;;;1.50;84.71;99129.88;2315825;66;20681;-79
2021/01/27 12:04:34;;;;;;;5.49;2.88;;;;;;;1.54;84.73;99130.81;2316135;69;20859;-81
2021/01/27 12:07:36;;;;;;;4.62;3.03;;;;;;;1.50;84.60;99129.88;2317202;69;20888;-80
2021/01/27 12:10:38;;;;;;;3.63;2.61;;;;;;;1.52;84.76;99129.09;2319826;69;20179;-78
2021/01/27 12:13:39;;;;;;;3.64;2.27;;;;;;;1.47;84.75;99125.53;2317445;68;20159;-79
2021/01/27 12:16:43;;;;;;;4.56;2.69;;;;;;;1.47;84.96;99135.78;2314647;66;20567;-78
2021/01/27 12:19:45;;;;;;;4.06;2.69;;;;;;;1.48;85.16;99144.31;2316836;69;20339;-78
2021/01/27 12:22:47;;;;;;;3.27;2.62;;;;;;;1.49;85.17;99136.69;2315596;68;20212;-79
2021/01/27 12:25:48;;;;;;;3.34;2.79;;;;;;;1.50;85.19;99135.00;2316235;69;20152;-79
2021/01/27 12:28:50;;;;;;;3.32;2.67;;;;;;;1.49;85.25;99134.13;2316418;69;20184;-78
2021/01/27 12:31:53;;;;;;;5.60;2.52;;;;;;;1.52;85.50;99138.44;2315629;66;24290;-78
2021/01/27 12:34:55;;;;;;;3.38;2.73;;;;;;;1.54;85.48;99131.69;2317050;68;20191;-78
2021/01/27 12:37:59;;;;;;;6.18;2.63;;;;;;;1.49;85.46;99138.38;2316959;69;20193;-78
2021/01/27 12:41:01;;;;;;;5.64;3.04;;;;;;;1.49;85.77;99136.69;2317946;69;20140;-77
2021/01/27 12:44:04;;;;;;;4.21;2.86;;;;;;;1.51;85.88;99135.03;2316307;68;20175;-78
2021/01/27 12:47:06;;;;;;;3.34;2.53;;;;;;;1.53;85.90;99135.06;2317457;66;20151;-78
2021/01/27 12:50:10;;;;;;;3.77;2.91;;;;;;;1.49;86.03;99116.22;2316761;69;20297;-77
2021/01/27 12:53:12;;;;;;;2.67;2.30;;;;;;;1.44;86.25;99115.22;2316334;68;20159;-78
2021/01/27 12:56:14;;;;;;;4.71;2.82;;;;;;;1.42;86.22;99118.53;2316800;69;20740;-78
2021/01/27 12:59:16;;;;;;;4.56;3.34;;;;;;;1.39;86.56;99114.22;2319134;69;20136;-74
2021/01/27 13:02:17;;;;;;;5.18;2.97;;;;;;;1.42;86.76;99121.97;2315059;66;21668;-73
2021/01/27 13:05:21;;;;;;;6.28;2.87;;;;;;;1.47;86.93;99115.31;2316216;68;20155;-73
2021/01/27 13:08:23;;;;;;;4.76;2.80;;;;;;;1.47;86.90;99104.22;2316450;69;20183;-73
2021/01/27 13:11:24;;;;;;;4.09;3.40;;;;;;;1.48;86.91;99099.13;2316906;69;20725;-74
2021/01/27 13:14:26;;;;;;;4.05;2.56;;;;;;;1.48;87.00;99111.06;2315727;68;20529;-73
2021/01/27 13:17:28;;;;;;;3.71;2.78;;;;;;;1.45;87.04;99104.16;2315959;67;23051;-73
2021/01/27 13:20:30;;;;;;;2.77;2.36;;;;;;;1.45;87.22;99105.88;2317631;69;20144;-73
2021/01/27 13:23:32;;;;;;;4.28;2.88;;;;;;;1.48;87.22;99103.38;2316549;68;20184;-73
2021/01/27 13:26:33;;;;;;;5.49;3.41;;;;;;;1.50;87.31;99109.41;2317351;69;20189;-73
2021/01/27 13:29:36;;;;;;;4.86;2.89;;;;;;;1.49;87.31;99103.41;2316184;68;20590;-73
2021/01/27 13:32:38;;;;;;;7.19;3.34;;;;;;;1.53;87.41;99099.25;2316301;67;22849;-72
2021/01/27 13:35:41;;;;;;;49.63;25.47;;;;;;;1.51;87.37;99101.75;2317514;68;20163;-73
2021/01/27 13:38:42;;;;;;;12.24;8.18;;;;;;;1.53;87.60;99089.00;2317469;69;20591;-73
2021/01/27 13:41:44;;;;;;;11.04;6.10;;;;;;;1.51;87.56;99096.66;2316386;69;20151;-73
2021/01/27 13:44:46;;;;;;;11.57;7.39;;;;;;;1.49;87.66;99108.53;2315800;68;20151;-73
2021/01/27 13:47:47;;;;;;;6.51;5.34;;;;;;;1.49;87.84;99094.88;2315808;66;21041;-73
2021/01/27 13:50:50;;;;;;;5.83;4.14;;;;;;;1.52;87.82;99095.81;2315951;69;20140;-73
2021/01/27 13:53:51;;;;;;;4.79;3.88;;;;;;;1.55;87.96;99097.59;2317352;68;20171;-76
2021/01/27 13:56:53;;;;;;;4.43;3.51;;;;;;;1.58;87.96;99099.34;2316794;69;20706;-75
2021/01/27 13:59:55;;;;;;;4.09;3.26;;;;;;;1.60;87.98;99093.44;2313211;69;20705;-76
2021/01/27 14:02:56;;;;;;;4.74;2.88;;;;;;;1.63;87.96;99097.81;2317599;66;20240;-77
2021/01/27 14:05:58;;;;;;;3.39;2.84;;;;;;;1.66;88.05;99105.56;2314796;69;20900;-76
2021/01/27 14:09:00;;;;;;;5.50;3.19;;;;;;;1.66;88.00;99096.19;2316210;69;21103;-76
2021/01/27 14:12:02;;;;;;;8.26;3.69;;;;;;;1.68;88.03;99102.22;2316295;69;20310;-76
2021/01/27 14:15:05;;;;;;;4.06;3.74;;;;;;;1.71;88.08;99097.16;2313927;68;20337;-74
2021/01/27 14:18:07;;;;;;;4.39;3.80;;;;;;;1.73;88.10;99089.53;2316279;66;21530;-73
2021/01/27 14:21:09;;;;;;;4.63;2.92;;;;;;;1.72;88.07;99085.25;2316275;69;20303;-73
2021/01/27 14:24:11;;;;;;;3.83;2.88;;;;;;;1.70;88.08;99098.00;2315592;68;20406;-73
2021/01/27 14:27:13;;;;;;;4.00;2.61;;;;;;;1.69;88.20;99103.94;2317507;69;20307;-73
2021/01/27 14:30:18;;;;;;;3.22;2.92;;;;;;;1.69;88.28;99103.94;2316471;67;20324;-73
2021/01/27 14:33:20;;;;;;;3.49;2.94;;;;;;;1.69;88.40;99113.31;2316533;68;20888;-73
2021/01/27 14:36:21;;;;;;;4.34;2.81;;;;;;;1.70;88.44;99126.16;2316206;69;20144;-73
2021/01/27 14:39:23;;;;;;;4.53;3.19;;;;;;;1.72;88.39;99127.06;2315820;69;20301;-73
2021/01/27 14:42:27;;;;;;;5.53;2.66;;;;;;;1.75;88.40;99134.81;2316345;69;20844;-73
2021/01/27 14:45:28;;;;;;;4.32;2.85;;;;;;;1.76;88.46;99118.63;2315693;66;24444;-74
2021/01/27 14:48:35;;;;;;;3.63;2.69;;;;;;;1.76;88.38;99120.31;2316486;69;20304;-74
2021/01/27 14:51:37;;;;;;;3.10;2.85;;;;;;;1.77;88.51;99116.94;2316841;69;20309;-73